sensor_id;sensor_type;location;lat;lon;timestamp;P1;durP1;ratioP1;P2;durP2;ratioP2
78197;SDS011;67472;51.554;7.812;2023-02-15T00:01:47;20.75;;;12.98;;
78197;SDS011;67472;51.554;7.812;2023-02-15T00:04:32;18.20;;;13.23;;
78197;SDS011;67472;51.554;7.812;2023-02-15T00:07:31;17.05;;;12.15;;
78197;SDS011;67472;51.554;7.812;2023-02-15T00:10:16;17.80;;;13.10;;
78197;SDS011;67472;51.554;7.812;2023-02-15T00:13:01;18.83;;;12.35;;
78197;SDS011;67472;51.554;7.812;2023-02-15T00:15:46;17.42;;;12.38;;
78197;SDS011;67472;51.554;7.812;2023-02-15T00:18:31;18.33;;;11.57;;
78197;SDS011;67472;51.554;7.812;2023-02-15T00:21:15;19.08;;;12.10;;
78197;SDS011;67472;51.554;7.812;2023-02-15T00:24:00;17.05;;;12.23;;
78197;SDS011;67472;51.554;7.812;2023-02-15T00:26:47;19.23;;;13.07;;
78197;SDS011;67472;51.554;7.812;2023-02-15T00:29:32;16.42;;;11.50;;
78197;SDS011;67472;51.554;7.812;2023-02-15T00:32:16;20.35;;;12.13;;
78197;SDS011;67472;51.554;7.812;2023-02-15T00:35:00;18.13;;;12.65;;
78197;SDS011;67472;51.554;7.812;2023-02-15T00:37:45;18.02;;;12.25;;
78197;SDS011;67472;51.554;7.812;2023-02-15T00:40:29;17.88;;;12.05;;
78197;SDS011;67472;51.554;7.812;2023-02-15T00:43:14;19.58;;;12.57;;
78197;SDS011;67472;51.554;7.812;2023-02-15T00:46:00;20.20;;;11.57;;
78197;SDS011;67472;51.554;7.812;2023-02-15T00:48:44;21.73;;;13.57;;
78197;SDS011;67472;51.554;7.812;2023-02-15T00:51:30;21.45;;;13.25;;
78197;SDS011;67472;51.554;7.812;2023-02-15T00:54:14;21.08;;;12.77;;
78197;SDS011;67472;51.554;7.812;2023-02-15T00:56:59;19.27;;;12.73;;
78197;SDS011;67472;51.554;7.812;2023-02-15T00:59:43;21.60;;;14.13;;
78197;SDS011;67472;51.554;7.812;2023-02-15T01:02:27;19.23;;;12.65;;
78197;SDS011;67472;51.554;7.812;2023-02-15T01:05:12;20.85;;;12.75;;
78197;SDS011;67472;51.554;7.812;2023-02-15T01:07:56;16.48;;;12.02;;
78197;SDS011;67472;51.554;7.812;2023-02-15T01:10:41;21.17;;;12.93;;
78197;SDS011;67472;51.554;7.812;2023-02-15T01:13:27;19.17;;;12.07;;
78197;SDS011;67472;51.554;7.812;2023-02-15T01:16:12;19.38;;;12.93;;
78197;SDS011;67472;51.554;7.812;2023-02-15T01:18:56;22.77;;;13.05;;
78197;SDS011;67472;51.554;7.812;2023-02-15T01:21:40;22.38;;;13.18;;
78197;SDS011;67472;51.554;7.812;2023-02-15T01:24:27;17.15;;;12.38;;
78197;SDS011;67472;51.554;7.812;2023-02-15T01:27:11;17.45;;;12.60;;
78197;SDS011;67472;51.554;7.812;2023-02-15T01:29:56;17.77;;;11.23;;
78197;SDS011;67472;51.554;7.812;2023-02-15T01:32:41;16.02;;;11.40;;
78197;SDS011;67472;51.554;7.812;2023-02-15T01:35:26;17.38;;;11.95;;
78197;SDS011;67472;51.554;7.812;2023-02-15T01:38:12;19.13;;;13.02;;
78197;SDS011;67472;51.554;7.812;2023-02-15T01:40:58;19.08;;;13.25;;
78197;SDS011;67472;51.554;7.812;2023-02-15T01:44:01;15.73;;;11.70;;
78197;SDS011;67472;51.554;7.812;2023-02-15T01:46:49;17.00;;;12.15;;
78197;SDS011;67472;51.554;7.812;2023-02-15T01:49:37;19.23;;;12.77;;
78197;SDS011;67472;51.554;7.812;2023-02-15T01:52:24;20.80;;;12.30;;
78197;SDS011;67472;51.554;7.812;2023-02-15T01:55:09;17.55;;;12.60;;
78197;SDS011;67472;51.554;7.812;2023-02-15T01:58:00;17.77;;;12.57;;
78197;SDS011;67472;51.554;7.812;2023-02-15T02:00:50;20.20;;;13.82;;
78197;SDS011;67472;51.554;7.812;2023-02-15T02:03:43;21.00;;;13.95;;
78197;SDS011;67472;51.554;7.812;2023-02-15T02:06:28;19.80;;;14.38;;
78197;SDS011;67472;51.554;7.812;2023-02-15T02:09:13;24.30;;;14.65;;
78197;SDS011;67472;51.554;7.812;2023-02-15T02:11:59;20.45;;;14.43;;
78197;SDS011;67472;51.554;7.812;2023-02-15T02:14:44;24.05;;;15.82;;
78197;SDS011;67472;51.554;7.812;2023-02-15T02:29:31;23.25;;;13.25;;
78197;SDS011;67472;51.554;7.812;2023-02-15T02:32:33;19.60;;;13.73;;
78197;SDS011;67472;51.554;7.812;2023-02-15T02:35:31;20.92;;;13.82;;
78197;SDS011;67472;51.554;7.812;2023-02-15T02:41:29;20.15;;;13.75;;
78197;SDS011;67472;51.554;7.812;2023-02-15T02:44:31;18.73;;;13.95;;
78197;SDS011;67472;51.554;7.812;2023-02-15T02:47:26;23.65;;;14.55;;
78197;SDS011;67472;51.554;7.812;2023-02-15T02:50:18;19.13;;;13.73;;
78197;SDS011;67472;51.554;7.812;2023-02-15T02:53:06;23.83;;;15.90;;
78197;SDS011;67472;51.554;7.812;2023-02-15T02:56:03;21.52;;;14.70;;
78197;SDS011;67472;51.554;7.812;2023-02-15T02:58:59;19.45;;;13.18;;
78197;SDS011;67472;51.554;7.812;2023-02-15T03:01:53;22.35;;;14.20;;
78197;SDS011;67472;51.554;7.812;2023-02-15T03:04:45;21.25;;;13.50;;
78197;SDS011;67472;51.554;7.812;2023-02-15T03:07:42;25.17;;;14.00;;
78197;SDS011;67472;51.554;7.812;2023-02-15T03:10:34;20.70;;;13.65;;
78197;SDS011;67472;51.554;7.812;2023-02-15T03:13:19;23.10;;;13.98;;
78197;SDS011;67472;51.554;7.812;2023-02-15T03:16:05;23.23;;;14.77;;
78197;SDS011;67472;51.554;7.812;2023-02-15T03:19:15;20.23;;;13.00;;
78197;SDS011;67472;51.554;7.812;2023-02-15T03:22:03;20.23;;;13.10;;
78197;SDS011;67472;51.554;7.812;2023-02-15T03:24:58;19.40;;;13.18;;
78197;SDS011;67472;51.554;7.812;2023-02-15T03:27:47;21.65;;;14.63;;
78197;SDS011;67472;51.554;7.812;2023-02-15T03:30:37;19.95;;;14.02;;
78197;SDS011;67472;51.554;7.812;2023-02-15T03:33:26;20.45;;;12.90;;
78197;SDS011;67472;51.554;7.812;2023-02-15T03:47:54;23.75;;;14.75;;
78197;SDS011;67472;51.554;7.812;2023-02-15T03:50:40;26.48;;;16.25;;
78197;SDS011;67472;51.554;7.812;2023-02-15T03:53:44;26.27;;;15.60;;
78197;SDS011;67472;51.554;7.812;2023-02-15T03:56:31;25.65;;;15.73;;
78197;SDS011;67472;51.554;7.812;2023-02-15T03:59:18;25.02;;;14.63;;
78197;SDS011;67472;51.554;7.812;2023-02-15T04:02:21;29.60;;;16.42;;
78197;SDS011;67472;51.554;7.812;2023-02-15T04:05:10;33.42;;;18.75;;
78197;SDS011;67472;51.554;7.812;2023-02-15T04:07:55;27.55;;;16.02;;
78197;SDS011;67472;51.554;7.812;2023-02-15T04:10:39;31.52;;;16.48;;
78197;SDS011;67472;51.554;7.812;2023-02-15T04:13:36;25.63;;;15.45;;
78197;SDS011;67472;51.554;7.812;2023-02-15T04:16:22;23.42;;;14.68;;
78197;SDS011;67472;51.554;7.812;2023-02-15T04:19:06;24.77;;;14.80;;
78197;SDS011;67472;51.554;7.812;2023-02-15T04:22:09;25.33;;;15.73;;
78197;SDS011;67472;51.554;7.812;2023-02-15T04:25:12;25.95;;;15.90;;
78197;SDS011;67472;51.554;7.812;2023-02-15T04:27:56;29.35;;;18.23;;
78197;SDS011;67472;51.554;7.812;2023-02-15T04:30:41;27.02;;;15.45;;
78197;SDS011;67472;51.554;7.812;2023-02-15T04:33:25;21.48;;;14.98;;
78197;SDS011;67472;51.554;7.812;2023-02-15T04:36:10;26.10;;;16.05;;
78197;SDS011;67472;51.554;7.812;2023-02-15T04:38:54;27.27;;;16.48;;
78197;SDS011;67472;51.554;7.812;2023-02-15T04:41:39;24.45;;;14.77;;
78197;SDS011;67472;51.554;7.812;2023-02-15T04:44:23;21.35;;;14.15;;
78197;SDS011;67472;51.554;7.812;2023-02-15T04:47:07;29.52;;;15.10;;
78197;SDS011;67472;51.554;7.812;2023-02-15T04:49:52;22.05;;;14.27;;
78197;SDS011;67472;51.554;7.812;2023-02-15T04:52:36;22.50;;;14.30;;
78197;SDS011;67472;51.554;7.812;2023-02-15T04:55:21;26.10;;;16.17;;
78197;SDS011;67472;51.554;7.812;2023-02-15T04:58:05;31.45;;;16.67;;
78197;SDS011;67472;51.554;7.812;2023-02-15T05:00:50;23.10;;;14.48;;
78197;SDS011;67472;51.554;7.812;2023-02-15T05:03:34;25.02;;;15.00;;
78197;SDS011;67472;51.554;7.812;2023-02-15T05:06:19;22.35;;;14.77;;
78197;SDS011;67472;51.554;7.812;2023-02-15T05:09:03;27.23;;;16.02;;
78197;SDS011;67472;51.554;7.812;2023-02-15T05:11:48;25.55;;;15.80;;
78197;SDS011;67472;51.554;7.812;2023-02-15T05:14:32;26.15;;;15.48;;
78197;SDS011;67472;51.554;7.812;2023-02-15T05:17:17;27.15;;;16.67;;
78197;SDS011;67472;51.554;7.812;2023-02-15T05:20:03;30.95;;;16.80;;
78197;SDS011;67472;51.554;7.812;2023-02-15T05:22:47;25.85;;;15.95;;
78197;SDS011;67472;51.554;7.812;2023-02-15T05:25:32;26.58;;;16.40;;
78197;SDS011;67472;51.554;7.812;2023-02-15T05:28:35;25.85;;;15.43;;
78197;SDS011;67472;51.554;7.812;2023-02-15T05:31:21;28.15;;;17.58;;
78197;SDS011;67472;51.554;7.812;2023-02-15T05:34:06;23.48;;;15.32;;
78197;SDS011;67472;51.554;7.812;2023-02-15T05:36:50;32.85;;;17.10;;
78197;SDS011;67472;51.554;7.812;2023-02-15T05:39:34;28.60;;;16.75;;
78197;SDS011;67472;51.554;7.812;2023-02-15T05:42:19;29.58;;;16.30;;
78197;SDS011;67472;51.554;7.812;2023-02-15T05:45:03;25.67;;;16.45;;
78197;SDS011;67472;51.554;7.812;2023-02-15T05:47:49;27.60;;;16.85;;
78197;SDS011;67472;51.554;7.812;2023-02-15T05:50:34;32.58;;;18.30;;
78197;SDS011;67472;51.554;7.812;2023-02-15T05:53:18;30.42;;;17.35;;
78197;SDS011;67472;51.554;7.812;2023-02-15T05:56:03;22.80;;;15.60;;
78197;SDS011;67472;51.554;7.812;2023-02-15T05:58:48;24.10;;;15.70;;
78197;SDS011;67472;51.554;7.812;2023-02-15T06:01:33;23.23;;;14.98;;
78197;SDS011;67472;51.554;7.812;2023-02-15T06:04:17;26.00;;;15.98;;
78197;SDS011;67472;51.554;7.812;2023-02-15T06:07:02;23.35;;;16.20;;
78197;SDS011;67472;51.554;7.812;2023-02-15T06:09:46;27.63;;;16.13;;
78197;SDS011;67472;51.554;7.812;2023-02-15T06:12:31;28.15;;;16.67;;
78197;SDS011;67472;51.554;7.812;2023-02-15T06:15:15;24.38;;;13.90;;
78197;SDS011;67472;51.554;7.812;2023-02-15T06:18:00;26.08;;;16.17;;
78197;SDS011;67472;51.554;7.812;2023-02-15T06:20:47;25.55;;;15.52;;
78197;SDS011;67472;51.554;7.812;2023-02-15T06:23:32;25.73;;;15.88;;
78197;SDS011;67472;51.554;7.812;2023-02-15T06:26:17;28.45;;;16.98;;
78197;SDS011;67472;51.554;7.812;2023-02-15T06:29:02;26.63;;;16.38;;
78197;SDS011;67472;51.554;7.812;2023-02-15T06:31:46;30.38;;;18.63;;
78197;SDS011;67472;51.554;7.812;2023-02-15T06:34:31;29.42;;;16.70;;
78197;SDS011;67472;51.554;7.812;2023-02-15T06:37:15;27.63;;;16.85;;
78197;SDS011;67472;51.554;7.812;2023-02-15T06:39:59;25.95;;;16.73;;
78197;SDS011;67472;51.554;7.812;2023-02-15T06:42:44;30.85;;;16.98;;
78197;SDS011;67472;51.554;7.812;2023-02-15T06:45:29;28.95;;;17.45;;
78197;SDS011;67472;51.554;7.812;2023-02-15T06:48:13;24.20;;;14.63;;
78197;SDS011;67472;51.554;7.812;2023-02-15T06:50:58;26.67;;;15.80;;
78197;SDS011;67472;51.554;7.812;2023-02-15T06:53:42;25.05;;;15.50;;
78197;SDS011;67472;51.554;7.812;2023-02-15T06:56:27;23.58;;;15.80;;
78197;SDS011;67472;51.554;7.812;2023-02-15T06:59:11;26.23;;;17.33;;
78197;SDS011;67472;51.554;7.812;2023-02-15T07:01:56;29.10;;;16.77;;
78197;SDS011;67472;51.554;7.812;2023-02-15T07:04:40;25.42;;;15.45;;
78197;SDS011;67472;51.554;7.812;2023-02-15T07:07:24;30.15;;;17.92;;
78197;SDS011;67472;51.554;7.812;2023-02-15T07:10:09;24.20;;;15.40;;
78197;SDS011;67472;51.554;7.812;2023-02-15T07:12:53;24.90;;;15.73;;
78197;SDS011;67472;51.554;7.812;2023-02-15T07:15:38;24.10;;;16.13;;
78197;SDS011;67472;51.554;7.812;2023-02-15T07:18:22;25.52;;;15.98;;
78197;SDS011;67472;51.554;7.812;2023-02-15T07:21:07;27.45;;;16.65;;
78197;SDS011;67472;51.554;7.812;2023-02-15T07:23:52;26.83;;;16.30;;
78197;SDS011;67472;51.554;7.812;2023-02-15T07:26:36;32.88;;;19.20;;
78197;SDS011;67472;51.554;7.812;2023-02-15T07:29:20;30.10;;;18.63;;
78197;SDS011;67472;51.554;7.812;2023-02-15T07:32:05;29.48;;;17.08;;
78197;SDS011;67472;51.554;7.812;2023-02-15T07:34:49;29.60;;;18.15;;
78197;SDS011;67472;51.554;7.812;2023-02-15T07:37:34;31.75;;;19.05;;
78197;SDS011;67472;51.554;7.812;2023-02-15T07:40:18;31.88;;;19.73;;
78197;SDS011;67472;51.554;7.812;2023-02-15T07:43:03;23.73;;;16.60;;
78197;SDS011;67472;51.554;7.812;2023-02-15T07:45:47;33.58;;;19.08;;
78197;SDS011;67472;51.554;7.812;2023-02-15T07:48:32;32.33;;;18.67;;
78197;SDS011;67472;51.554;7.812;2023-02-15T07:51:17;31.45;;;18.33;;
78197;SDS011;67472;51.554;7.812;2023-02-15T07:54:01;29.77;;;18.55;;
78197;SDS011;67472;51.554;7.812;2023-02-15T07:56:46;28.13;;;17.70;;
78197;SDS011;67472;51.554;7.812;2023-02-15T07:59:30;32.60;;;19.30;;
78197;SDS011;67472;51.554;7.812;2023-02-15T08:02:15;27.73;;;17.70;;
78197;SDS011;67472;51.554;7.812;2023-02-15T08:04:59;30.63;;;18.83;;
78197;SDS011;67472;51.554;7.812;2023-02-15T08:07:43;30.27;;;17.65;;
78197;SDS011;67472;51.554;7.812;2023-02-15T08:10:28;32.75;;;18.33;;
78197;SDS011;67472;51.554;7.812;2023-02-15T08:13:31;32.75;;;20.23;;
78197;SDS011;67472;51.554;7.812;2023-02-15T08:16:15;27.52;;;17.70;;
78197;SDS011;67472;51.554;7.812;2023-02-15T08:19:01;27.33;;;18.27;;
78197;SDS011;67472;51.554;7.812;2023-02-15T08:21:49;31.23;;;18.42;;
78197;SDS011;67472;51.554;7.812;2023-02-15T08:24:36;30.05;;;18.65;;
78197;SDS011;67472;51.554;7.812;2023-02-15T08:27:21;27.52;;;17.52;;
78197;SDS011;67472;51.554;7.812;2023-02-15T08:30:10;27.38;;;18.38;;
78197;SDS011;67472;51.554;7.812;2023-02-15T08:32:55;25.92;;;15.82;;
78197;SDS011;67472;51.554;7.812;2023-02-15T08:35:39;25.92;;;17.05;;
78197;SDS011;67472;51.554;7.812;2023-02-15T08:38:24;27.48;;;17.75;;
78197;SDS011;67472;51.554;7.812;2023-02-15T08:41:09;28.63;;;18.70;;
78197;SDS011;67472;51.554;7.812;2023-02-15T08:44:15;30.10;;;17.02;;
78197;SDS011;67472;51.554;7.812;2023-02-15T08:47:01;27.52;;;16.75;;
78197;SDS011;67472;51.554;7.812;2023-02-15T08:49:47;29.50;;;18.67;;
78197;SDS011;67472;51.554;7.812;2023-02-15T08:52:31;27.80;;;17.17;;
78197;SDS011;67472;51.554;7.812;2023-02-15T08:55:16;27.58;;;17.33;;
78197;SDS011;67472;51.554;7.812;2023-02-15T08:58:00;31.95;;;19.48;;
78197;SDS011;67472;51.554;7.812;2023-02-15T09:00:45;30.15;;;18.55;;
78197;SDS011;67472;51.554;7.812;2023-02-15T09:03:29;26.27;;;17.52;;
78197;SDS011;67472;51.554;7.812;2023-02-15T09:06:14;28.00;;;18.50;;
78197;SDS011;67472;51.554;7.812;2023-02-15T09:08:58;30.27;;;18.88;;
78197;SDS011;67472;51.554;7.812;2023-02-15T09:11:44;28.10;;;17.95;;
78197;SDS011;67472;51.554;7.812;2023-02-15T09:14:30;27.65;;;18.75;;
78197;SDS011;67472;51.554;7.812;2023-02-15T09:17:14;28.05;;;17.67;;
78197;SDS011;67472;51.554;7.812;2023-02-15T09:19:59;25.88;;;17.95;;
78197;SDS011;67472;51.554;7.812;2023-02-15T09:22:44;28.77;;;18.98;;
78197;SDS011;67472;51.554;7.812;2023-02-15T09:25:28;27.95;;;17.42;;
78197;SDS011;67472;51.554;7.812;2023-02-15T09:28:13;24.63;;;15.32;;
78197;SDS011;67472;51.554;7.812;2023-02-15T09:31:03;30.35;;;16.52;;
78197;SDS011;67472;51.554;7.812;2023-02-15T09:34:08;28.02;;;16.05;;
78197;SDS011;67472;51.554;7.812;2023-02-15T09:36:52;25.40;;;15.80;;
78197;SDS011;67472;51.554;7.812;2023-02-15T09:39:37;23.63;;;14.23;;
78197;SDS011;67472;51.554;7.812;2023-02-15T09:48:40;22.67;;;13.55;;
78197;SDS011;67472;51.554;7.812;2023-02-15T09:51:38;18.92;;;12.75;;
78197;SDS011;67472;51.554;7.812;2023-02-15T09:54:39;23.75;;;14.80;;
78197;SDS011;67472;51.554;7.812;2023-02-15T10:09:55;18.83;;;13.00;;
78197;SDS011;67472;51.554;7.812;2023-02-15T10:13:05;19.77;;;12.05;;
78197;SDS011;67472;51.554;7.812;2023-02-15T10:16:08;23.90;;;13.68;;
78197;SDS011;67472;51.554;7.812;2023-02-15T10:22:37;22.83;;;14.82;;
78197;SDS011;67472;51.554;7.812;2023-02-15T10:27:57;21.50;;;13.65;;
78197;SDS011;67472;51.554;7.812;2023-02-15T10:31:00;19.13;;;12.82;;
78197;SDS011;67472;51.554;7.812;2023-02-15T10:43:46;21.42;;;13.93;;
78197;SDS011;67472;51.554;7.812;2023-02-15T11:02:03;21.05;;;14.02;;
78197;SDS011;67472;51.554;7.812;2023-02-15T11:05:59;22.20;;;13.60;;
78197;SDS011;67472;51.554;7.812;2023-02-15T11:08:27;18.90;;;12.85;;
78197;SDS011;67472;51.554;7.812;2023-02-15T11:11:19;19.42;;;12.85;;
78197;SDS011;67472;51.554;7.812;2023-02-15T11:17:28;21.00;;;13.85;;
78197;SDS011;67472;51.554;7.812;2023-02-15T11:20:28;21.48;;;12.25;;
78197;SDS011;67472;51.554;7.812;2023-02-15T11:23:16;20.17;;;12.63;;
78197;SDS011;67472;51.554;7.812;2023-02-15T11:26:03;23.38;;;13.63;;
78197;SDS011;67472;51.554;7.812;2023-02-15T11:28:59;18.42;;;12.38;;
78197;SDS011;67472;51.554;7.812;2023-02-15T11:40:59;19.65;;;12.50;;
78197;SDS011;67472;51.554;7.812;2023-02-15T11:43:54;24.70;;;13.70;;
78197;SDS011;67472;51.554;7.812;2023-02-15T11:46:40;19.52;;;12.70;;
78197;SDS011;67472;51.554;7.812;2023-02-15T11:49:27;21.83;;;13.07;;
78197;SDS011;67472;51.554;7.812;2023-02-15T11:52:15;23.05;;;13.77;;
78197;SDS011;67472;51.554;7.812;2023-02-15T11:55:09;23.90;;;12.88;;
78197;SDS011;67472;51.554;7.812;2023-02-15T12:00:43;18.30;;;12.88;;
78197;SDS011;67472;51.554;7.812;2023-02-15T12:03:47;20.73;;;12.95;;
78197;SDS011;67472;51.554;7.812;2023-02-15T12:06:43;20.27;;;13.20;;
78197;SDS011;67472;51.554;7.812;2023-02-15T12:09:38;23.58;;;13.43;;
78197;SDS011;67472;51.554;7.812;2023-02-15T12:12:32;19.27;;;12.75;;
78197;SDS011;67472;51.554;7.812;2023-02-15T12:15:18;24.58;;;13.80;;
78197;SDS011;67472;51.554;7.812;2023-02-15T12:18:24;26.30;;;12.77;;
78197;SDS011;67472;51.554;7.812;2023-02-15T12:24:23;19.52;;;11.82;;
78197;SDS011;67472;51.554;7.812;2023-02-15T12:27:18;17.38;;;12.35;;
78197;SDS011;67472;51.554;7.812;2023-02-15T12:30:07;16.20;;;10.65;;
78197;SDS011;67472;51.554;7.812;2023-02-15T12:33:05;17.85;;;10.95;;
78197;SDS011;67472;51.554;7.812;2023-02-15T12:44:59;16.83;;;10.30;;
78197;SDS011;67472;51.554;7.812;2023-02-15T12:47:45;13.77;;;9.05;;
78197;SDS011;67472;51.554;7.812;2023-02-15T12:50:31;13.52;;;8.15;;
78197;SDS011;67472;51.554;7.812;2023-02-15T12:53:30;13.35;;;8.95;;
78197;SDS011;67472;51.554;7.812;2023-02-15T12:56:18;12.60;;;8.55;;
78197;SDS011;67472;51.554;7.812;2023-02-15T12:59:12;14.90;;;7.93;;
78197;SDS011;67472;51.554;7.812;2023-02-15T13:02:00;20.83;;;8.05;;
78197;SDS011;67472;51.554;7.812;2023-02-15T13:05:04;13.45;;;7.53;;
78197;SDS011;67472;51.554;7.812;2023-02-15T13:08:00;16.17;;;7.65;;
78197;SDS011;67472;51.554;7.812;2023-02-15T13:11:09;12.50;;;7.05;;
78197;SDS011;67472;51.554;7.812;2023-02-15T13:13:55;10.75;;;7.97;;
78197;SDS011;67472;51.554;7.812;2023-02-15T13:16:43;12.45;;;7.80;;
78197;SDS011;67472;51.554;7.812;2023-02-15T13:19:33;21.45;;;7.95;;
78197;SDS011;67472;51.554;7.812;2023-02-15T13:22:26;15.57;;;9.05;;
78197;SDS011;67472;51.554;7.812;2023-02-15T13:25:19;13.13;;;7.57;;
78197;SDS011;67472;51.554;7.812;2023-02-15T13:28:10;12.52;;;7.88;;
78197;SDS011;67472;51.554;7.812;2023-02-15T13:30:58;12.50;;;7.63;;
78197;SDS011;67472;51.554;7.812;2023-02-15T13:33:50;9.80;;;7.18;;
78197;SDS011;67472;51.554;7.812;2023-02-15T13:37:01;10.60;;;7.45;;
78197;SDS011;67472;51.554;7.812;2023-02-15T13:39:49;11.73;;;6.70;;
78197;SDS011;67472;51.554;7.812;2023-02-15T13:42:40;12.55;;;6.82;;
78197;SDS011;67472;51.554;7.812;2023-02-15T13:51:52;11.32;;;6.40;;
78197;SDS011;67472;51.554;7.812;2023-02-15T13:57:46;10.27;;;5.68;;
78197;SDS011;67472;51.554;7.812;2023-02-15T14:10:12;12.07;;;5.15;;
78197;SDS011;67472;51.554;7.812;2023-02-15T14:20:00;7.75;;;5.05;;
78197;SDS011;67472;51.554;7.812;2023-02-15T14:35:13;10.35;;;5.78;;
78197;SDS011;67472;51.554;7.812;2023-02-15T14:43:52;16.98;;;6.45;;
78197;SDS011;67472;51.554;7.812;2023-02-15T14:47:26;10.05;;;5.88;;
78197;SDS011;67472;51.554;7.812;2023-02-15T14:50:36;11.18;;;5.70;;
78197;SDS011;67472;51.554;7.812;2023-02-15T14:56:20;8.85;;;5.63;;
78197;SDS011;67472;51.554;7.812;2023-02-15T14:59:12;9.10;;;6.03;;
78197;SDS011;67472;51.554;7.812;2023-02-15T15:01:58;12.25;;;6.05;;
78197;SDS011;67472;51.554;7.812;2023-02-15T15:04:56;9.60;;;6.15;;
78197;SDS011;67472;51.554;7.812;2023-02-15T15:10:40;9.45;;;6.60;;
78197;SDS011;67472;51.554;7.812;2023-02-15T15:16:31;11.02;;;6.25;;
78197;SDS011;67472;51.554;7.812;2023-02-15T15:22:31;13.63;;;8.43;;
78197;SDS011;67472;51.554;7.812;2023-02-15T15:41:08;9.63;;;6.45;;
78197;SDS011;67472;51.554;7.812;2023-02-15T15:50:30;10.82;;;6.25;;
78197;SDS011;67472;51.554;7.812;2023-02-15T15:53:18;13.80;;;7.00;;
78197;SDS011;67472;51.554;7.812;2023-02-15T15:56:07;8.70;;;6.50;;
78197;SDS011;67472;51.554;7.812;2023-02-15T15:58:56;11.73;;;7.60;;
78197;SDS011;67472;51.554;7.812;2023-02-15T16:01:44;11.32;;;6.57;;
78197;SDS011;67472;51.554;7.812;2023-02-15T16:04:32;13.20;;;6.90;;
78197;SDS011;67472;51.554;7.812;2023-02-15T16:10:06;11.07;;;7.20;;
78197;SDS011;67472;51.554;7.812;2023-02-15T16:13:04;11.23;;;6.70;;
78197;SDS011;67472;51.554;7.812;2023-02-15T16:15:51;11.60;;;6.38;;
78197;SDS011;67472;51.554;7.812;2023-02-15T16:18:37;12.93;;;7.05;;
78197;SDS011;67472;51.554;7.812;2023-02-15T16:21:34;12.40;;;7.30;;
78197;SDS011;67472;51.554;7.812;2023-02-15T16:30:31;11.52;;;6.13;;
78197;SDS011;67472;51.554;7.812;2023-02-15T16:33:17;8.85;;;6.28;;
78197;SDS011;67472;51.554;7.812;2023-02-15T16:36:04;12.18;;;7.15;;
78197;SDS011;67472;51.554;7.812;2023-02-15T16:41:36;11.10;;;6.75;;
78197;SDS011;67472;51.554;7.812;2023-02-15T16:44:21;10.35;;;5.93;;
78197;SDS011;67472;51.554;7.812;2023-02-15T16:47:08;12.05;;;6.20;;
78197;SDS011;67472;51.554;7.812;2023-02-15T16:50:01;8.70;;;5.95;;
78197;SDS011;67472;51.554;7.812;2023-02-15T16:52:47;9.80;;;6.28;;
78197;SDS011;67472;51.554;7.812;2023-02-15T16:55:37;12.82;;;6.75;;
78197;SDS011;67472;51.554;7.812;2023-02-15T16:58:36;12.07;;;7.28;;
78197;SDS011;67472;51.554;7.812;2023-02-15T17:01:21;10.32;;;5.90;;
78197;SDS011;67472;51.554;7.812;2023-02-15T17:04:29;7.90;;;6.22;;
78197;SDS011;67472;51.554;7.812;2023-02-15T17:07:16;9.70;;;7.18;;
78197;SDS011;67472;51.554;7.812;2023-02-15T17:10:02;12.55;;;7.75;;
78197;SDS011;67472;51.554;7.812;2023-02-15T17:12:47;13.45;;;7.80;;
78197;SDS011;67472;51.554;7.812;2023-02-15T17:18:28;20.10;;;10.68;;
78197;SDS011;67472;51.554;7.812;2023-02-15T17:21:20;25.40;;;9.95;;
78197;SDS011;67472;51.554;7.812;2023-02-15T17:24:18;17.38;;;9.50;;
78197;SDS011;67472;51.554;7.812;2023-02-15T17:27:15;23.25;;;14.40;;
78197;SDS011;67472;51.554;7.812;2023-02-15T17:30:04;28.42;;;16.35;;
78197;SDS011;67472;51.554;7.812;2023-02-15T17:33:01;28.48;;;15.70;;
78197;SDS011;67472;51.554;7.812;2023-02-15T17:36:09;26.95;;;14.05;;
78197;SDS011;67472;51.554;7.812;2023-02-15T17:39:12;23.55;;;13.60;;
78197;SDS011;67472;51.554;7.812;2023-02-15T17:42:04;24.48;;;13.80;;
78197;SDS011;67472;51.554;7.812;2023-02-15T17:44:48;27.73;;;14.10;;
78197;SDS011;67472;51.554;7.812;2023-02-15T17:47:33;21.90;;;12.75;;
78197;SDS011;67472;51.554;7.812;2023-02-15T17:50:26;22.63;;;13.90;;
78197;SDS011;67472;51.554;7.812;2023-02-15T17:53:17;25.20;;;12.50;;
78197;SDS011;67472;51.554;7.812;2023-02-15T17:56:02;21.73;;;12.75;;
78197;SDS011;67472;51.554;7.812;2023-02-15T17:58:53;22.88;;;12.32;;
78197;SDS011;67472;51.554;7.812;2023-02-15T18:01:39;19.95;;;12.60;;
78197;SDS011;67472;51.554;7.812;2023-02-15T18:04:47;25.55;;;13.35;;
78197;SDS011;67472;51.554;7.812;2023-02-15T18:07:50;20.33;;;13.18;;
78197;SDS011;67472;51.554;7.812;2023-02-15T18:10:53;21.38;;;13.10;;
78197;SDS011;67472;51.554;7.812;2023-02-15T18:13:56;20.02;;;11.88;;
78197;SDS011;67472;51.554;7.812;2023-02-15T18:16:44;19.33;;;10.57;;
78197;SDS011;67472;51.554;7.812;2023-02-15T18:19:28;20.75;;;12.27;;
78197;SDS011;67472;51.554;7.812;2023-02-15T18:22:14;19.70;;;10.85;;
78197;SDS011;67472;51.554;7.812;2023-02-15T18:25:00;20.42;;;11.10;;
78197;SDS011;67472;51.554;7.812;2023-02-15T18:27:45;14.18;;;9.52;;
78197;SDS011;67472;51.554;7.812;2023-02-15T18:30:29;14.48;;;9.43;;
78197;SDS011;67472;51.554;7.812;2023-02-15T18:36:20;17.65;;;11.63;;
78197;SDS011;67472;51.554;7.812;2023-02-15T18:39:58;20.02;;;11.75;;
78197;SDS011;67472;51.554;7.812;2023-02-15T18:42:30;24.85;;;12.32;;
78197;SDS011;67472;51.554;7.812;2023-02-15T18:48:04;20.58;;;10.52;;
78197;SDS011;67472;51.554;7.812;2023-02-15T18:50:51;18.42;;;10.90;;
78197;SDS011;67472;51.554;7.812;2023-02-15T18:53:35;18.75;;;11.90;;
78197;SDS011;67472;51.554;7.812;2023-02-15T18:56:20;20.52;;;12.40;;
78197;SDS011;67472;51.554;7.812;2023-02-15T18:59:05;20.92;;;12.98;;
78197;SDS011;67472;51.554;7.812;2023-02-15T19:01:50;22.48;;;11.63;;
78197;SDS011;67472;51.554;7.812;2023-02-15T19:04:35;24.23;;;11.57;;
78197;SDS011;67472;51.554;7.812;2023-02-15T19:07:21;18.30;;;11.32;;
78197;SDS011;67472;51.554;7.812;2023-02-15T19:10:17;17.30;;;10.70;;
78197;SDS011;67472;51.554;7.812;2023-02-15T19:13:04;17.10;;;10.77;;
78197;SDS011;67472;51.554;7.812;2023-02-15T19:15:53;16.17;;;9.73;;
78197;SDS011;67472;51.554;7.812;2023-02-15T19:18:38;19.00;;;9.40;;
78197;SDS011;67472;51.554;7.812;2023-02-15T19:21:22;14.73;;;9.77;;
78197;SDS011;67472;51.554;7.812;2023-02-15T19:24:11;13.25;;;9.57;;
78197;SDS011;67472;51.554;7.812;2023-02-15T19:27:01;16.58;;;10.65;;
78197;SDS011;67472;51.554;7.812;2023-02-15T19:29:46;21.05;;;11.50;;
78197;SDS011;67472;51.554;7.812;2023-02-15T19:32:31;20.30;;;11.80;;
78197;SDS011;67472;51.554;7.812;2023-02-15T19:35:16;21.80;;;14.63;;
78197;SDS011;67472;51.554;7.812;2023-02-15T19:38:06;23.48;;;15.30;;
78197;SDS011;67472;51.554;7.812;2023-02-15T19:40:59;23.77;;;13.60;;
78197;SDS011;67472;51.554;7.812;2023-02-15T19:43:49;25.95;;;13.52;;
78197;SDS011;67472;51.554;7.812;2023-02-15T19:46:38;20.48;;;12.40;;
78197;SDS011;67472;51.554;7.812;2023-02-15T19:49:22;24.08;;;13.10;;
78197;SDS011;67472;51.554;7.812;2023-02-15T19:52:14;24.25;;;15.00;;
78197;SDS011;67472;51.554;7.812;2023-02-15T19:55:01;19.55;;;13.40;;